Tiempo atmosférico en la estación meteorológica de Rasquera, Tarragona (186 m.)



Fecha
DESCASC
Temp. máxima en grados centígrados (hora)
DESCASC
Temp. mínima en grados centígrados (hora)
DESCASC
Temp. media en grados centígrados
DESCASC
Racha de viento máxima en m/sg (hora)
DESCASC
Velocidad máxima media en intervalos de 10 minutos(hora)
DESCASC
Precipitaciones diarias en mm
DESCASC
Precipitaciones de 00:00 a 06:00 en mm
DESCASC
Precipitaciones de 06:00 a 12:00 en mm
DESCASC
Precipitaciones de 12:00 a 18:00 en mm
DESCASC
Precipitaciones de 18:00 a 24:00 en mm
DESCASC
31-05-2020 24.4 (14:20) 16 (06:20) 20.2 11.67 (16:30) 6.67 (16:30) 0.8 0 0 0 0.8
30-05-2020 24.2 (14:40) 17.5 (06:40) 20.9 10.83 (14:00) 6.11 (15:30) 0 0 0 0 0
28-05-2020 25.8 (16:10) 11.8 (00:00) 18.8 10.83 (17:20) 5.83 (17:20) 0 0 0 0 0
27-05-2020 25.8 (15:30) 13.9 (05:40) 19.8 10.56 (17:10) 6.39 (17:10) 0 0 0 0 0
26-05-2020 27.6 (14:00) 14.3 (00:00) 21 7.78 (15:10) 4.72 (19:40) 0 0 0 0 0
25-05-2020 21.1 (16:20) 16.2 (00:00) 18.7 6.67 (17:40) 3.89 (17:50) 4.4 0 3.6 0.8 0
24-05-2020 24.8 (15:20) 16.4 (07:00) 20.6 9.72 (17:10) 5.56 (18:30) 0 0 0 0 0
23-05-2020 29.4 (14:00) 18.7 (00:00) 24.1 7.5 (19:20) 5 (20:40) 0 0 0 0 0
22-05-2020 30 (13:20) 13.2 (00:00) 21.6 10.28 (17:30) 6.67 (17:10) 0 0 0 0 0
21-05-2020 31 (15:40) 13.7 (00:00) 22.3 7.78 (17:30) 4.17 (17:30) 0 0 0 0 0
20-05-2020 31.3 (18:10) 14.3 (00:00) 22.8 7.5 (13:10) 4.17 (11:00) 0 0 0 0 0
19-05-2020 28.5 (17:50) 14.8 (07:10) 21.7 11.39 (10:00) 6.39 (11:30) 0 0 0 0 0
18-05-2020 26.7 (17:50) 12.3 (00:00) 19.5 10.56 (11:10) 5.56 (10:50) 0 0 0 0 0
17-05-2020 24.2 (19:10) 13.2 (00:00) 18.7 10 (12:10) 5.83 (12:10) 0 0 0 0 0
16-05-2020 21.3 (18:20) 12.8 (00:00) 17 9.17 (14:50) 5 (16:20) 1 1 0 0 0
15-05-2020 21.3 (17:20) 13.1 (02:20) 17.2 8.06 (12:20) 4.72 (10:40) 2.2 0.6 0 0 1.6
14-05-2020 16.4 (18:10) 10.9 (00:00) 13.6 6.39 (10:40) 3.61 (10:20) 54.4 0 44.4 8.6 1.4
13-05-2020 23.6 (18:00) 13.2 (00:00) 18.4 8.33 (12:10) 4.72 (11:30) 4 1 3 0 0
12-05-2020 21.6 (14:10) 13 (06:20) 17.3 9.72 (16:10) 5.56 (17:30) 0.6 0 0 0 0.6
11-05-2020 25.5 (16:40) 14.3 (00:00) 19.9 12.5 (11:10) 6.11 (14:30) 0 0 0 0 0
10-05-2020 18.3 (00:00) 13.4 (00:00) 15.8 14.72 (10:30) 8.33 (10:40) 25.4 0.2 15.6 8.8 0.8
09-05-2020 22.5 (12:40) 15.7 (07:30) 19.1 8.61 (16:50) 5 (12:30) 0 0 0 0 0
08-05-2020 23.8 (15:10) 12 (00:00) 17.9 10.83 (16:10) 6.67 (18:50) 0 0 0 0 0
07-05-2020 25.2 (15:50) 12 (00:00) 18.6 8.89 (12:40) 5.28 (12:10) 0 0 0 0 0
06-05-2020 27.9 (13:50) 13.9 (00:00) 20.9 8.89 (16:10) 5.83 (17:10) 0 0 0 0 0
05-05-2020 26.6 (17:20) 17.2 (00:00) 21.9 7.78 (19:50) 4.44 (19:50) 0 0 0 0 0

Gráficas

Temp. máximas Temp. mínimas Temp. medias Precipitaciones Rachas de viento máximas Velocidades máximas media en intervalos de 10 minutos

Datos horarios

Fecha y hora oficial Temperatura (ºC) Velocidad del viento (km/h) Dirección del viento Racha (km/h) Dirección de racha Precipitación (mm) Presión (hPa) Tendencia (hPa) Humedad (%)
2020-06-03 23:00:00 17.4 5 Sur 9 Oeste 0 -- -- 95
2020-06-03 22:00:00 17.8 5 Oeste 22 Oeste 3.6 -- -- 93
2020-06-03 21:00:00 19.5 5 Noroeste 20 Oeste 2.2 -- -- 95
2020-06-03 20:00:00 20.4 10 Oeste 28 Oeste 1.2 -- -- 87
2020-06-03 19:00:00 21.3 10 Este 26 Sudeste 0 -- -- 86
2020-06-03 18:00:00 21.5 15 Sudeste 30 Sudeste 0.2 -- -- 89
2020-06-03 17:00:00 21.2 17 Sudeste 33 Sudeste 0.2 -- -- 88
2020-06-03 16:00:00 23.3 16 Sudeste 35 Sudeste 0 -- -- 78
2020-06-03 15:00:00 24.9 19 Sudeste 33 Sudeste 0 -- -- 67
2020-06-03 14:00:00 26.4 17 Sudeste 31 Sudeste 0 -- -- 64
2020-06-03 13:00:00 27.1 10 Sudeste 24 Este 0 -- -- 60
2020-06-03 12:00:00 26.2 9 Este 19 Sudeste 0 -- -- 59
2020-06-03 11:00:00 25 8 Sudeste 18 Sudeste 0 -- -- 64
2020-06-03 10:00:00 22.6 4 Oeste 14 Sudeste 0 -- -- 74
2020-06-03 09:00:00 20.9 5 Nordeste 10 Este 0 -- -- 83
2020-06-03 08:00:00 18.7 2 Norte 5 Noroeste 0 -- -- 93
2020-06-03 07:00:00 17.9 0 Calma 6 Sudeste 0 -- -- 92
2020-06-03 06:00:00 19 4 Sudeste 9 Sudeste 0 -- -- 92
2020-06-03 05:00:00 19 4 Sudeste 10 Sudeste 0 -- -- 92
2020-06-03 04:00:00 18.6 5 Sudeste 11 Sur 0 -- -- 92
2020-06-03 03:00:00 17.3 7 Sudeste 16 Sur 0 -- -- 91
2020-06-03 02:00:00 18.2 10 Sudeste 14 Sudeste 0 -- -- 92
2020-06-03 01:00:00 18.3 5 Sur 12 Sudeste 0 -- -- 90
2020-06-03 00:00:00 19.4 6 Sudeste 15 Sudeste 0 -- -- 87
2020-06-02 23:00:00 19.8 8 Sudeste 15 Sudeste 0 -- -- 86
2020-06-02 22:00:00 20.3 8 Sudeste 17 Sudeste 0 -- -- 84
2020-06-02 21:00:00 21 10 Sudeste 21 Sudeste 0 -- -- 80
2020-06-02 20:00:00 21.8 10 Sudeste 22 Sudeste 0 -- -- 75
2020-06-02 19:00:00 22.4 12 Sudeste 28 Sudeste 0 -- -- 72
2020-06-02 18:00:00 22.9 17 Sudeste 30 Sudeste 0 -- -- 68
2020-06-02 17:00:00 24 17 Este 34 Sudeste 0 -- -- 67
2020-06-02 16:00:00 24.8 18 Sudeste 32 Sudeste 0 -- -- 65
2020-06-02 15:00:00 25.5 18 Sudeste 35 Sudeste 0 -- -- 65
2020-06-02 14:00:00 26.5 15 Este 28 Sudeste 0 -- -- 62
2020-06-02 13:00:00 26.6 14 Sudeste 23 Sudeste 0 -- -- 64
2020-06-02 12:00:00 25.8 10 Sudeste 23 Sudeste 0 -- -- 65
2020-06-02 11:00:00 23.9 8 Este 15 Este 0 -- -- 69
2020-06-02 10:00:00 21.8 4 Noroeste 13 Este 0 -- -- 78
2020-06-02 09:00:00 20.6 3 Nordeste 9 Nordeste 0 -- -- 83
2020-06-02 08:00:00 17.8 0 Calma 4 Este 0 -- -- 91
2020-06-02 07:00:00 16.4 0 Calma 4 Noroeste 0 -- -- 95
2020-06-02 06:00:00 16.2 0 Calma 6 Este 0 -- -- 93
2020-06-02 05:00:00 17.3 8 Sudeste 14 Sudeste 0 -- -- 92
2020-06-02 04:00:00 17.4 6 Sur 9 Sudeste 0 -- -- 90
2020-06-02 03:00:00 17.4 5 Sudeste 11 Este 0 -- -- 89
2020-06-02 02:00:00 18.2 6 Sudeste 11 Este 0 -- -- 85
2020-06-02 01:00:00 19 7 Este 17 Sudeste 0 -- -- 78
2020-06-02 00:00:00 19.4 10 Sudeste 19 Sur 0 -- -- 74
2020-06-01 23:00:00 19 9 Sudeste 13 Sudeste 0 -- -- 75
2020-06-01 22:00:00 19.9 6 Sudeste 17 Sudeste 0 -- -- 71
2020-06-01 21:00:00 21.9 14 Sudeste 28 Sudeste 0 -- -- 61
2020-06-01 20:00:00 23.5 15 Sudeste 34 Este 0 -- -- 55
2020-06-01 19:00:00 24.2 17 Sudeste 36 Sudeste 0 -- -- 58
2020-06-01 18:00:00 24.7 19 Sudeste 39 Este 0 -- -- 60
2020-06-01 17:00:00 25 16 Sudeste 34 Sudeste 0 -- -- 60
2020-06-01 16:00:00 24.8 18 Sudeste 36 Sudeste 0 -- -- 67
2020-06-01 15:00:00 25.2 18 Sudeste 33 Sudeste 0 -- -- 66
2020-06-01 14:00:00 25.3 17 Este 31 Este 0 -- -- 63
2020-06-01 13:00:00 25 12 Este 23 Este 0 -- -- 65
2020-06-01 12:00:00 23.9 9 Este 19 Este 0 -- -- 71
2020-06-01 11:00:00 22 3 Nordeste 8 Norte 0 -- -- 83
2020-06-01 10:00:00 17.9 2 Nordeste 6 Norte 0 -- -- 98
2020-06-01 09:00:00 16.3 0 Calma 4 Noroeste 0 -- -- 98
2020-06-01 08:00:00 15.8 0 Calma 4 Nordeste 0 -- -- 98
2020-06-01 07:00:00 15.2 3 Sur 6 Sur 0 -- -- 98
2020-06-01 06:00:00 14.7 2 Sur 6 Sudoeste 0.2 -- -- 97
2020-06-01 05:00:00 15 3 Noroeste 6 Oeste 0 -- -- 97
2020-06-01 04:00:00 15.7 0 Calma 6 Oeste 0 -- -- 96
2020-06-01 03:00:00 15.7 4 Oeste 5 Oeste 0 -- -- 95
2020-06-01 02:00:00 16.4 0 Calma 9 Noroeste 0 -- -- 96
2020-06-01 01:00:00 17 2 Sudeste 8 Este 0 -- -- 96
2020-06-01 00:00:00 16.9 4 Sur 12 Oeste 0.4 -- -- 94
2020-05-31 23:00:00 17.7 6 Noroeste 13 Norte 0.4 -- -- 91
2020-05-31 22:00:00 19.6 5 Norte 17 Sudeste 0 -- -- 82
2020-05-31 21:00:00 20.6 9 Sudeste 22 Este 0 -- -- 80
2020-05-31 20:00:00 20.9 9 Sudeste 29 Sudeste 0 -- -- 70
2020-05-31 19:00:00 21.4 15 Sudeste 33 Sudeste 0 -- -- 66
2020-05-31 18:00:00 22 18 Sudeste 36 Sudeste 0 -- -- 66
2020-05-31 17:00:00 24.1 18 Sudeste 42 Sudeste 0 -- -- 60
2020-05-31 16:00:00 24 20 Este 38 Este 0 -- -- 64
2020-05-31 15:00:00 23.9 21 Este 39 Este 0 -- -- 66
2020-05-31 14:00:00 23.7 18 Este 33 Este 0 -- -- 67
2020-05-31 13:00:00 24.3 16 Este 31 Este 0 -- -- 66
2020-05-31 12:00:00 24 14 Este 33 Este 0 -- -- 65
2020-05-31 11:00:00 23.6 17 Sudeste 30 Este 0 -- -- 67
2020-05-31 10:00:00 21.7 17 Este 29 Este 0 -- -- 71
2020-05-31 09:00:00 20.6 12 Este 22 Este 0 -- -- 74
2020-05-31 08:00:00 18.4 7 Sudeste 16 Sudeste 0 -- -- 85
2020-05-31 07:00:00 16.5 7 Sudeste 13 Sudeste 0 -- -- 89
2020-05-31 06:00:00 16.3 6 Sudeste 22 Sudeste 0 -- -- 88
2020-05-31 05:00:00 17 12 Sudeste 18 Sudeste 0 -- -- 87
2020-05-31 04:00:00 17.2 11 Sudeste 18 Sudeste 0 -- -- 87
2020-05-31 03:00:00 17.5 8 Sudeste 17 Sudeste 0 -- -- 89
2020-05-31 02:00:00 18 10 Sudeste 18 Sur 0 -- -- 87
2020-05-31 01:00:00 18 8 Sudeste 14 Sudeste 0 -- -- 88
2020-05-31 00:00:00 18.4 5 Sudeste 13 Sudeste 0 -- -- 87
2020-05-30 23:00:00 19.2 6 Sudeste 17 Sudeste 0 -- -- 84
2020-05-30 22:00:00 19.7 7 Sudeste 21 Este 0 -- -- 79
2020-05-30 21:00:00 20.6 11 Este 30 Sudeste 0 -- -- 75
2020-05-30 20:00:00 21.5 16 Sudeste 35 Sudeste 0 -- -- 74
2020-05-30 19:00:00 22.3 16 Sudeste 32 Sudeste 0 -- -- 70
2020-05-30 18:00:00 21.7 18 Sudeste 35 Este 0 -- -- 73
2020-05-30 17:00:00 23 19 Sudeste 34 Sudeste 0 -- -- 69
2020-05-30 16:00:00 23.6 20 Sudeste 38 Este 0 -- -- 69
2020-05-30 15:00:00 23.9 18 Sudeste 35 Sudeste 0 -- -- 68
2020-05-30 14:00:00 24.1 19 Sudeste 39 Sudeste 0 -- -- 66
2020-05-30 13:00:00 23.3 18 Sudeste 35 Sudeste 0 -- -- 67
2020-05-30 12:00:00 23 15 Este 31 Sudeste 0 -- -- 66
2020-05-30 11:00:00 23.3 15 Este 31 Este 0 -- -- 66
2020-05-30 10:00:00 22.3 15 Este 25 Este 0 -- -- 70
2020-05-30 09:00:00 20.4 10 Sur 23 Sudeste 0 -- -- 77
2020-05-30 08:00:00 19.1 9 Sudeste 17 Sur 0 -- -- 81
2020-05-30 07:00:00 17.7 10 Sur 16 Sudeste 0 -- -- 86
2020-05-30 06:00:00 17.7 10 Sudeste 19 Sudeste 0 -- -- 83
2020-05-30 05:00:00 17.7 11 Sudeste 20 Sudeste 0 -- -- 84
2020-05-30 04:00:00 17.9 12 Sudeste 21 Sudeste 0 -- -- 88
2020-05-30 03:00:00 17.8 10 Sur 21 Sudeste 0 -- -- 85
2020-05-30 02:00:00 18.7 9 Sudeste 18 Sudeste 0 -- -- 83
2020-05-30 01:00:00 19.5 9 Sudeste 25 Sur 0 -- -- 81
2020-05-30 00:00:00 19.5 9 Sudeste 22 Sudeste 0 -- -- 80
2020-05-29 23:00:00 19.6 12 Sudeste 30 Sudeste 0 -- -- 76
2020-05-29 22:00:00 20.4 16 Sudeste 30 Este 0 -- -- 74
2020-05-29 21:00:00 22 17 Sudeste 32 Este 0 -- -- 64
2020-05-29 20:00:00 24.2 14 Sudeste 31 Este 0 -- -- 53
2020-05-29 19:00:00 25.5 17 Este 35 Este 0 -- -- 52
2020-05-29 18:00:00 26.4 17 Este 41 Este 0 -- -- 49
2020-05-29 17:00:00 26.9 20 Sudeste 36 Sudeste 0 -- -- 49
2020-05-29 16:00:00 27.4 18 Sudeste 34 Sudeste 0 -- -- 51
2020-05-29 15:00:00 28.1 15 Sudeste 28 Este 0 -- -- 51
2020-05-29 14:00:00 28.9 8 Este 22 Este 0 -- -- 50
2020-05-29 13:00:00 27.4 4 Nordeste 12 Norte 0 -- -- 48
2020-05-29 12:00:00 25.5 4 Este 10 Nordeste 0 -- -- 54
2020-05-29 11:00:00 22.4 4 Norte 8 Noroeste 0 -- -- 62
2020-05-29 10:00:00 19.3 3 Nordeste 8 Norte 0 -- -- 78
2020-05-29 09:00:00 16.6 2 Norte 5 Norte 0 -- -- 89
2020-05-29 08:00:00 14.1 0 Calma 5 Oeste 0 -- -- 98
2020-05-29 07:00:00 12.9 3 Noroeste 6 Sur 0 -- -- 96
2020-05-29 06:00:00 12.9 2 Sudoeste 4 Sur 0 -- -- 94
2020-05-29 05:00:00 14.1 2 Noroeste 6 Oeste 0 -- -- 94
2020-05-29 04:00:00 15.2 5 Oeste 14 Sur 0 -- -- 92
2020-05-29 03:00:00 17.6 10 Sur 16 Sur 0 -- -- 93
2020-05-29 02:00:00 17.6 11 Sur 17 Sudeste 0 -- -- 92
2020-05-29 01:00:00 17.7 11 Sur 17 Sudeste 0 -- -- 92
2020-05-29 00:00:00 18 11 Sur 19 Sudeste 0 -- -- 92
2020-05-28 23:00:00 18.3 11 Sudeste 18 Sur 0 -- -- 90
2020-05-28 22:00:00 18.9 10 Sudeste 19 Sudeste 0 -- -- 86
2020-05-28 21:00:00 20.4 11 Sudeste 27 Sudeste 0 -- -- 80
2020-05-28 20:00:00 22.2 15 Sudeste 28 Este 0 -- -- 73
2020-05-28 19:00:00 23.5 17 Sudeste 31 Este 0 -- -- 65
2020-05-28 18:00:00 24.2 15 Sudeste 39 Sudeste 0 -- -- 60
2020-05-28 17:00:00 24.7 18 Sudeste 33 Sudeste 0 -- -- 57
2020-05-28 16:00:00 25.6 17 Sudeste 32 Sudeste 0 -- -- 52
2020-05-28 15:00:00 25.1 17 Sudeste 30 Este 0 -- -- 53
2020-05-28 14:00:00 25.6 17 Sudeste 28 Sudeste 0 -- -- 53
2020-05-28 13:00:00 25.2 13 Sudeste 22 Este 0 -- -- 59
2020-05-28 12:00:00 24.3 10 Sudeste 20 Sudeste 0 -- -- 59
2020-05-28 11:00:00 22.5 9 Sudeste 17 Sudeste 0 -- -- 69
2020-05-28 10:00:00 17.8 0 Calma 6 Sudoeste 0 -- -- 84
2020-05-28 09:00:00 15.4 3 Noroeste 8 Norte 0 -- -- 92
2020-05-28 08:00:00 13.8 0 Calma 5 Nordeste 0 -- -- 98
2020-05-28 07:00:00 12.1 5 Noroeste 8 Noroeste 0 -- -- 97
2020-05-28 06:00:00 12 0 Calma 5 Oeste 0 -- -- 95
2020-05-28 05:00:00 12.6 3 Oeste 6 Noroeste 0 -- -- 95
2020-05-28 04:00:00 13 0 Calma 4 Este 0 -- -- 94
2020-05-28 03:00:00 13.8 2 Norte 4 Noroeste 0 -- -- 91
2020-05-28 02:00:00 16 3 Noroeste 15 Sudeste 0 -- -- 89
2020-05-28 01:00:00 16.9 9 Sur 15 Sudeste 0 -- -- 91
2020-05-28 00:00:00 17.9 6 Sudeste 17 Sur 0 -- -- 81
2020-05-27 23:00:00 17.2 11 Sudeste 15 Sudeste 0 -- -- 77
2020-05-27 22:00:00 18.9 8 Sur 17 Sudeste 0 -- -- 62
2020-05-27 21:00:00 21.2 11 Sudeste 18 Sudeste 0 -- -- 55
2020-05-27 20:00:00 23 11 Sudeste 38 Sudeste 0 -- -- 51
2020-05-27 19:00:00 24.2 15 Sudeste 32 Sudeste 0 -- -- 45
2020-05-27 18:00:00 24.9 20 Sudeste 38 Sudeste 0 -- -- 45
2020-05-27 17:00:00 25.2 22 Sudeste 37 Sudeste 0 -- -- 47
2020-05-27 16:00:00 25.5 21 Sudeste 34 Sudeste 0 -- -- 47
2020-05-27 15:00:00 25.6 18 Sudeste 33 Sudeste 0 -- -- 50
2020-05-27 14:00:00 25.1 17 Sudeste 30 Sudeste 0 -- -- 49
2020-05-27 13:00:00 25.5 17 Sudeste 29 Sudeste 0 -- -- 47
2020-05-27 12:00:00 24.3 11 Este 24 Este 0 -- -- 45
2020-05-27 11:00:00 24.5 11 Sudeste 21 Sudeste 0 -- -- 51
2020-05-27 10:00:00 19.9 0 Calma 6 Nordeste 0 -- -- 75
2020-05-27 09:00:00 18.2 2 Norte 5 Norte 0 -- -- 84
2020-05-27 08:00:00 15.5 3 Norte 5 Noroeste 0 -- -- 94
2020-05-27 07:00:00 14.7 2 Este 6 Sur 0 -- -- 95
2020-05-27 06:00:00 14.2 0 Calma 6 Sudoeste 0 -- -- 94
2020-05-27 05:00:00 14.4 3 Oeste 7 Sur 0 -- -- 92
2020-05-27 04:00:00 14.6 2 Sudeste 6 Sur 0 -- -- 90
2020-05-27 03:00:00 15.1 4 Sudeste 9 Noroeste 0 -- -- 86
2020-05-27 02:00:00 16.9 3 Sudeste 9 Sudeste 0 -- -- 81
2020-05-27 01:00:00 18 8 Sur 12 Sur 0 -- -- 71
2020-05-27 00:00:00 19 9 Sur 16 Sudeste 0 -- -- 68
2020-05-26 23:00:00 20.2 13 Sudeste 19 Sudeste 0 -- -- 61
2020-05-26 22:00:00 20.6 9 Sudeste 15 Sur 0 -- -- 67
2020-05-26 21:00:00 23 9 Sudeste 21 Sudeste 0 -- -- 59
2020-05-26 20:00:00 25 13 Sudeste 25 Sudeste 0 -- -- 50
2020-05-26 19:00:00 26.1 15 Sudeste 25 Sudeste 0 -- -- 47
2020-05-26 18:00:00 26.8 15 Sudeste 26 Este 0 -- -- 45
2020-05-26 17:00:00 27.2 14 Sudeste 27 Sudeste 0 -- -- 46
2020-05-26 16:00:00 27.4 14 Sudeste 28 Sudeste 0 -- -- 44
2020-05-26 15:00:00 27.2 13 Este 28 Este 0 -- -- 46
2020-05-26 14:00:00 27.6 8 Sudeste 23 Este 0 -- -- 46
2020-05-26 13:00:00 25.8 3 Nordeste 11 Nordeste 0 -- -- 57
2020-05-26 12:00:00 24.1 5 Norte 16 Nordeste 0 -- -- 62
2020-05-26 11:00:00 22.8 6 Norte 12 Norte 0 -- -- 73
2020-05-26 10:00:00 20.2 6 Norte 12 Norte 0 -- -- 83
2020-05-26 09:00:00 18.1 3 Norte 6 Noroeste 0 -- -- 91
2020-05-26 08:00:00 16.3 0 Calma 4 Norte 0 -- -- 98
2020-05-26 07:00:00 15 0 Calma 4 Sudoeste 0 -- -- 97
2020-05-26 06:00:00 15.7 0 Calma 4 Sur 0 -- -- 98
2020-05-26 05:00:00 15.8 0 Calma 3 Norte 0 -- -- 98
2020-05-26 04:00:00 15.5 0 Calma 3 Sudeste 0 -- -- 97
2020-05-26 03:00:00 14.9 0 Calma 0 Calma 0 -- -- 97
2020-05-26 02:00:00 14.4 0 Calma 4 Oeste 0 -- -- 95
2020-05-26 01:00:00 15.2 0 Calma 5 Sur 0 -- -- 94
2020-05-26 00:00:00 16.2 3 Sudoeste 10 Sur 0 -- -- 94
2020-05-25 23:00:00 17 7 Sur 12 Sur 0 -- -- 90
2020-05-25 22:00:00 17.5 7 Sudeste 13 Sudeste 0 -- -- 89
2020-05-25 21:00:00 18.7 9 Sur 13 Sudeste 0 -- -- 86
2020-05-25 20:00:00 20.3 10 Sudeste 23 Sudeste 0 -- -- 80
2020-05-25 19:00:00 20.7 12 Sudeste 21 Sudeste 0 -- -- 78
2020-05-25 18:00:00 20.9 12 Sudeste 24 Sudeste 0.2 -- -- 76
2020-05-25 17:00:00 20.4 11 Sudeste 22 Sudeste 0 -- -- 78
2020-05-25 16:00:00 20.8 10 Sudeste 20 Este 0 -- -- 76
2020-05-25 15:00:00 20 7 Sur 22 Sudeste 0 -- -- 82
2020-05-25 14:00:00 19.3 10 Sudeste 21 Sudeste 0 -- -- 82
2020-05-25 13:00:00 17.7 5 Sudeste 13 Sudeste 0.6 -- -- 91
2020-05-25 12:00:00 18 2 Este 7 Este 1 -- -- 94
2020-05-25 11:00:00 18 3 Oeste 15 Oeste 0.4 -- -- 91
2020-05-25 10:00:00 18.4 9 Oeste 17 Oeste 0 -- -- 88
2020-05-25 09:00:00 17.8 5 Sudoeste 13 Sudeste 0 -- -- 94
2020-05-25 08:00:00 16.8 7 Sur 14 Sudeste 0.6 -- -- 95
2020-05-25 07:00:00 16.4 2 Sudeste 10 Sur 1.6 -- -- 93
2020-05-25 06:00:00 17.4 7 Sur 13 Sur 0 -- -- 89
2020-05-25 05:00:00 17 8 Sur 14 Sur 0 -- -- 89
2020-05-25 04:00:00 16.4 6 Sur 14 Sudeste 0 -- -- 90
2020-05-25 03:00:00 16.5 6 Sudeste 14 Sur 0 -- -- 89
2020-05-25 02:00:00 16.9 8 Sur 17 Sur 0 -- -- 87
2020-05-25 01:00:00 17 9 Sur 14 Sur 0 -- -- 87
2020-05-25 00:00:00 17.4 8 Sur 12 Sur 0 -- -- 86
2020-05-24 23:00:00 18.3 9 Sudeste 18 Este 0 -- -- 83
2020-05-24 22:00:00 19.1 11 Sudeste 27 Sudeste 0 -- -- 82
2020-05-24 21:00:00 19.9 14 Sudeste 28 Sudeste 0 -- -- 79
2020-05-24 20:00:00 21.1 15 Sudeste 33 Sudeste 0 -- -- 72
2020-05-24 19:00:00 22.7 16 Sudeste 35 Sudeste 0 -- -- 68
2020-05-24 18:00:00 23.8 13 Sudeste 35 Sudeste 0 -- -- 66
2020-05-24 17:00:00 23.4 17 Sudeste 33 Este 0 -- -- 67
2020-05-24 16:00:00 23.7 15 Este 28 Sudeste 0 -- -- 66
2020-05-24 15:00:00 24.2 10 Sudeste 21 Sudeste 0 -- -- 67
2020-05-24 14:00:00 24 3 Sudeste 14 Norte 0 -- -- 59
2020-05-24 13:00:00 23.2 5 Norte 16 Norte 0 -- -- 59
2020-05-24 12:00:00 20.9 6 Noroeste 15 Norte 0 -- -- 63
2020-05-24 11:00:00 20.1 7 Norte 17 Norte 0 -- -- 64
2020-05-24 10:00:00 18.8 9 Norte 18 Nordeste 0 -- -- 66
2020-05-24 09:00:00 17.9 9 Norte 18 Norte 0 -- -- 71
2020-05-24 08:00:00 17.1 8 Norte 18 Noroeste 0 -- -- 72
2020-05-24 07:00:00 16.4 5 Noroeste 13 Noroeste 0 -- -- 77
2020-05-24 06:00:00 17.6 8 Norte 19 Norte 0 -- -- 69
2020-05-24 05:00:00 17.7 6 Norte 13 Noroeste 0 -- -- 70
2020-05-24 04:00:00 18.5 7 Norte 14 Norte 0 -- -- 69
2020-05-24 03:00:00 18.9 5 Noroeste 10 Norte 0 -- -- 67
2020-05-24 02:00:00 19.9 3 Nordeste 10 Oeste 0 -- -- 69
2020-05-24 01:00:00 20.6 6 Oeste 12 Sudoeste 0 -- -- 63
2020-05-24 00:00:00 20.9 5 Norte 22 Sur 0 -- -- 76
2020-05-23 23:00:00 21.1 13 Sur 24 Sur 0 -- -- 82
2020-05-23 22:00:00 21.6 14 Sudeste 24 Sudeste 0 -- -- 78
2020-05-23 21:00:00 23.2 12 Sudeste 27 Sudeste 0 -- -- 73
2020-05-23 20:00:00 25.2 14 Sudeste 27 Sudeste 0 -- -- 68
2020-05-23 19:00:00 27.3 14 Sudeste 25 Sudeste 0 -- -- 61
2020-05-23 18:00:00 29.1 12 Sudeste 19 Sudeste 0 -- -- 55
2020-05-23 17:00:00 29.2 11 Sudeste 22 Sudeste 0 -- -- 54
2020-05-23 16:00:00 28.7 12 Sudeste 23 Sudeste 0 -- -- 58
2020-05-23 15:00:00 29.3 9 Sudeste 21 Sudeste 0 -- -- 60
2020-05-23 14:00:00 29.4 9 Sudeste 19 Sur 0 -- -- 57
2020-05-23 13:00:00 28 3 Norte 12 Nordeste 0 -- -- 56
2020-05-23 12:00:00 27.3 5 Sudeste 16 Este 0 -- -- 61
2020-05-23 11:00:00 25.3 3 Nordeste 8 Nordeste 0 -- -- 65
2020-05-23 10:00:00 22.4 3 Norte 11 Oeste 0 -- -- 75
2020-05-23 09:00:00 21.1 6 Sur 19 Sudeste 0 -- -- 81
2020-05-23 08:00:00 19.8 8 Sur 21 Sur 0 -- -- 87
2020-05-23 07:00:00 18.7 12 Sur 22 Sur 0 -- -- 93
2020-05-23 06:00:00 18.7 12 Sur 18 Sudeste 0 -- -- 93
2020-05-23 05:00:00 18.8 9 Sudeste 18 Sur 0 -- -- 94
2020-05-23 04:00:00 19.2 11 Sudeste 21 Sudeste 0 -- -- 91
2020-05-23 03:00:00 19.5 14 Sudeste 22 Sudeste 0 -- -- 92
2020-05-23 02:00:00 19.7 13 Sudeste 21 Sudeste 0 -- -- 92
2020-05-23 01:00:00 20.1 12 Sudeste 26 Sudeste 0 -- -- 91
2020-05-23 00:00:00 20.3 14 Sudeste 24 Sudeste 0 -- -- 91
2020-05-22 23:00:00 20.6 15 Sudeste 25 Sudeste 0 -- -- 90
2020-05-22 22:00:00 20.7 16 Sudeste 28 Sudeste 0 -- -- 90
2020-05-22 21:00:00 21.8 17 Sudeste 30 Sudeste 0 -- -- 85
2020-05-22 20:00:00 24.1 18 Sudeste 33 Sudeste 0 -- -- 75
2020-05-22 19:00:00 25.2 21 Sudeste 36 Sudeste 0 -- -- 64
2020-05-22 18:00:00 26 21 Sudeste 37 Sudeste 0 -- -- 61
2020-05-22 17:00:00 27.4 21 Sudeste 34 Sudeste 0 -- -- 55
2020-05-22 16:00:00 28.9 21 Sudeste 34 Sudeste 0 -- -- 45
2020-05-22 15:00:00 30 15 Sudeste 26 Sudeste 0 -- -- 48
2020-05-22 14:00:00 29.8 12 Sudeste 22 Sudeste 0 -- -- 52
2020-05-22 13:00:00 29.8 10 Sudeste 18 Este 0 -- -- 49
2020-05-22 12:00:00 28.3 8 Este 14 Este 0 -- -- 52
2020-05-22 11:00:00 24.7 3 Nordeste 6 Nordeste 0 -- -- 65
2020-05-22 10:00:00 20.6 3 Norte 8 Norte 0 -- -- 75
2020-05-22 09:00:00 17.7 3 Norte 8 Noroeste 0 -- -- 88
2020-05-22 08:00:00 15.6 0 Calma 4 Noroeste 0 -- -- 97
2020-05-22 07:00:00 13.3 0 Calma 3 Oeste 0 -- -- 96
2020-05-22 06:00:00 13.5 0 Calma 4 Sur 0 -- -- 95
2020-05-22 05:00:00 13.9 0 Calma 5 Oeste 0 -- -- 94
2020-05-22 04:00:00 14.7 0 Calma 6 Oeste 0 -- -- 92
2020-05-22 03:00:00 15.4 0 Calma 5 Sudoeste 0 -- -- 90
2020-05-22 02:00:00 16.8 5 Oeste 13 Sudeste 0 -- -- 86
2020-05-22 01:00:00 18.2 10 Sudeste 14 Sudeste 0 -- -- 78
2020-05-22 00:00:00 17.8 5 Sur 8 Sur 0 -- -- 84
2020-05-21 23:00:00 20 5 Sudoeste 12 Sur 0 -- -- 75
2020-05-21 22:00:00 21.3 9 Sur 12 Sur 0 -- -- 68
2020-05-21 21:00:00 24 7 Sur 14 Sudeste 0 -- -- 61
2020-05-21 20:00:00 25.8 7 Sur 25 Este 0 -- -- 55
2020-05-21 19:00:00 28.1 13 Este 24 Sudeste 0 -- -- 47
2020-05-21 18:00:00 29.4 14 Este 28 Este 0 -- -- 45
2020-05-21 17:00:00 29.7 15 Sudeste 25 Este 0 -- -- 49
2020-05-21 16:00:00 30.2 14 Este 22 Este 0 -- -- 45
2020-05-21 15:00:00 30.1 3 Norte 12 Noroeste 0 -- -- 41
2020-05-21 14:00:00 29.3 6 Este 18 Norte 0 -- -- 42
2020-05-21 13:00:00 27.7 5 Norte 17 Noroeste 0 -- -- 42
2020-05-21 12:00:00 26.4 12 Norte 19 Norte 0 -- -- 46
2020-05-21 11:00:00 24.2 7 Norte 13 Noroeste 0 -- -- 57
2020-05-21 10:00:00 21.2 5 Noroeste 9 Oeste 0 -- -- 66
2020-05-21 09:00:00 18.1 5 Noroeste 10 Noroeste 0 -- -- 80
2020-05-21 08:00:00 16.7 5 Noroeste 11 Oeste 0 -- -- 87
2020-05-21 07:00:00 14.3 5 Oeste 7 Oeste 0 -- -- 96
2020-05-21 06:00:00 14 4 Oeste 5 Oeste 0 -- -- 95
2020-05-21 05:00:00 14.2 0 Calma 7 Sudeste 0 -- -- 93
2020-05-21 04:00:00 14.9 2 Sudoeste 4 Oeste 0 -- -- 91
2020-05-21 03:00:00 16.5 5 Oeste 9 Oeste 0 -- -- 85
2020-05-21 02:00:00 18.5 2 Oeste 15 Sudeste 0 -- -- 76
2020-05-21 01:00:00 19.6 10 Sudeste 21 Sudeste 0 -- -- 72
2020-05-21 00:00:00 20.5 15 Sur 23 Sudeste 0 -- -- 67
2020-05-20 23:00:00 20.7 12 Sur 18 Sudeste 0 -- -- 63
2020-05-20 22:00:00 21.6 10 Sudeste 22 Sudeste 0 -- -- 60
2020-05-20 21:00:00 23.6 12 Sur 19 Sudeste 0 -- -- 55
2020-05-20 20:00:00 26.7 10 Sudeste 21 Sudeste 0 -- -- 49
2020-05-20 19:00:00 28.3 11 Sudeste 24 Este 0 -- -- 46
2020-05-20 18:00:00 31.2 3 Nordeste 14 Noroeste 0 -- -- 36
2020-05-20 17:00:00 30.4 8 Norte 18 Noroeste 0 -- -- 36
2020-05-20 16:00:00 29.5 9 Norte 18 Norte 0 -- -- 40
2020-05-20 15:00:00 28.7 10 Noroeste 22 Noroeste 0 -- -- 38
2020-05-20 14:00:00 27.5 13 Norte 27 Noroeste 0 -- -- 48
2020-05-20 13:00:00 26.4 13 Noroeste 25 Norte 0 -- -- 48
2020-05-20 12:00:00 24.9 15 Norte 25 Norte 0 -- -- 52
2020-05-20 11:00:00 23.4 15 Norte 23 Norte 0 -- -- 56
2020-05-20 10:00:00 21.4 12 Norte 21 Norte 0 -- -- 63
2020-05-20 09:00:00 19.3 11 Noroeste 20 Noroeste 0 -- -- 71
2020-05-20 08:00:00 16.6 6 Noroeste 12 Noroeste 0 -- -- 80
2020-05-20 07:00:00 15.3 7 Oeste 12 Oeste 0 -- -- 83
2020-05-20 06:00:00 15.2 6 Noroeste 10 Noroeste 0 -- -- 83
2020-05-20 05:00:00 14.7 4 Noroeste 6 Norte 0 -- -- 87
2020-05-20 04:00:00 15.5 3 Noroeste 12 Norte 0 -- -- 84
2020-05-20 03:00:00 16.8 5 Noroeste 19 Noroeste 0 -- -- 81
2020-05-20 02:00:00 16.9 6 Noroeste 12 Sudoeste 0 -- -- 79
2020-05-20 01:00:00 17 5 Noroeste 9 Noroeste 0 -- -- 78
2020-05-20 00:00:00 17.5 4 Este 9 Oeste 0 -- -- 76
2020-05-19 23:00:00 19.6 8 Oeste 11 Oeste 0 -- -- 65
2020-05-19 22:00:00 19.4 2 Noroeste 8 Noroeste 0 -- -- 68
2020-05-19 21:00:00 24.4 4 Noroeste 14 Oeste 0 -- -- 56
2020-05-19 20:00:00 27.8 9 Noroeste 23 Norte 0 -- -- 39
2020-05-19 19:00:00 28.3 12 Noroeste 23 Noroeste 0 -- -- 39
2020-05-19 18:00:00 28.5 13 Noroeste 26 Noroeste 0 -- -- 38
2020-05-19 17:00:00 28.2 13 Noroeste 26 Oeste 0 -- -- 40
2020-05-19 16:00:00 27.6 14 Oeste 32 Noroeste 0 -- -- 42
2020-05-19 15:00:00 26.6 15 Noroeste 32 Noroeste 0 -- -- 45
2020-05-19 14:00:00 25.4 19 Noroeste 30 Oeste 0 -- -- 47
2020-05-19 13:00:00 24.2 17 Noroeste 39 Oeste 0 -- -- 48
2020-05-19 12:00:00 22.8 18 Noroeste 37 Noroeste 0 -- -- 51
2020-05-19 11:00:00 21.2 20 Noroeste 39 Noroeste 0 -- -- 54
2020-05-19 10:00:00 19.9 21 Noroeste 41 Noroeste 0 -- -- 56
2020-05-19 09:00:00 18.6 11 Noroeste 20 Noroeste 0 -- -- 59
2020-05-19 08:00:00 16.5 9 Noroeste 18 Norte 0 -- -- 68
2020-05-19 07:00:00 15 8 Norte 13 Noroeste 0 -- -- 71
2020-05-19 06:00:00 16.4 8 Noroeste 23 Noroeste 0 -- -- 64
2020-05-19 05:00:00 16.4 9 Noroeste 18 Oeste 0 -- -- 66
2020-05-19 04:00:00 17.3 11 Noroeste 22 Noroeste 0 -- -- 64
2020-05-19 03:00:00 17.5 8 Noroeste 26 Noroeste 0 -- -- 65
2020-05-19 02:00:00 18.5 13 Noroeste 24 Oeste 0 -- -- 60
2020-05-19 01:00:00 16.7 10 Noroeste 19 Noroeste 0 -- -- 79
2020-05-19 00:00:00 15.5 3 Nordeste 8 Sur 0 -- -- 86
2020-05-18 23:00:00 17.7 4 Sudoeste 11 Sur 0 -- -- 76
2020-05-18 22:00:00 19.2 8 Sur 13 Sudeste 0 -- -- 71
2020-05-18 21:00:00 22.3 7 Sur 13 Noroeste 0 -- -- 60
2020-05-18 20:00:00 25.5 9 Noroeste 22 Noroeste 0 -- -- 42
2020-05-18 19:00:00 26.4 10 Noroeste 20 Oeste 0 -- -- 39
2020-05-18 18:00:00 26.6 10 Noroeste 19 Noroeste 0 -- -- 38
2020-05-18 17:00:00 26.5 10 Noroeste 19 Norte 0 -- -- 38
2020-05-18 16:00:00 25.6 11 Norte 25 Norte 0 -- -- 41
2020-05-18 15:00:00 24.7 13 Noroeste 24 Noroeste 0 -- -- 43
2020-05-18 14:00:00 23.6 13 Noroeste 27 Norte 0 -- -- 47
2020-05-18 13:00:00 22.5 16 Noroeste 29 Noroeste 0 -- -- 50
2020-05-18 12:00:00 21.2 18 Noroeste 38 Noroeste 0 -- -- 52
2020-05-18 11:00:00 19.9 20 Noroeste 35 Noroeste 0 -- -- 53
2020-05-18 10:00:00 18.6 18 Noroeste 30 Noroeste 0 -- -- 55
2020-05-18 09:00:00 16.8 11 Noroeste 24 Noroeste 0 -- -- 61
2020-05-18 08:00:00 13.6 4 Nordeste 13 Norte 0 -- -- 77
2020-05-18 07:00:00 12.7 10 Norte 14 Norte 0 -- -- 79
2020-05-18 06:00:00 13.5 6 Noroeste 15 Noroeste 0 -- -- 74
2020-05-18 05:00:00 13.7 9 Noroeste 15 Norte 0 -- -- 76
2020-05-18 04:00:00 14.3 10 Noroeste 18 Norte 0 -- -- 75
2020-05-18 03:00:00 17.5 13 Oeste 28 Oeste 0 -- -- 58
2020-05-18 02:00:00 16.6 9 Oeste 14 Oeste 0 -- -- 64
2020-05-18 01:00:00 14.7 5 Noroeste 10 Sudoeste 0 -- -- 78
2020-05-18 00:00:00 13.8 4 Norte 10 Sudoeste 0 -- -- 85
2020-05-17 23:00:00 14.5 0 Calma 8 Oeste 0 -- -- 82
2020-05-17 22:00:00 16.6 5 Sudeste 9 Sudoeste 0 -- -- 71
2020-05-17 21:00:00 21.1 4 Sudoeste 18 Oeste 0 -- -- 55
2020-05-17 20:00:00 23.5 11 Oeste 21 Oeste 0 -- -- 42
2020-05-17 19:00:00 24.1 12 Oeste 27 Oeste 0 -- -- 42
2020-05-17 18:00:00 24 13 Oeste 27 Noroeste 0 -- -- 45
2020-05-17 17:00:00 23.7 14 Noroeste 28 Noroeste 0 -- -- 45
2020-05-17 16:00:00 23.5 12 Oeste 28 Oeste 0 -- -- 48
2020-05-17 15:00:00 22.5 15 Oeste 27 Noroeste 0 -- -- 51
2020-05-17 14:00:00 21.5 20 Noroeste 31 Noroeste 0 -- -- 53
2020-05-17 13:00:00 20.5 10 Oeste 36 Noroeste 0 -- -- 59
2020-05-17 12:00:00 18.9 18 Noroeste 33 Oeste 0 -- -- 58
2020-05-17 11:00:00 17.9 17 Noroeste 28 Noroeste 0 -- -- 61
2020-05-17 10:00:00 16.2 14 Oeste 25 Oeste 0 -- -- 64
2020-05-17 09:00:00 14.6 11 Noroeste 26 Noroeste 0 -- -- 69
2020-05-17 08:00:00 13.9 9 Norte 16 Norte 0 -- -- 75
2020-05-17 07:00:00 13.3 10 Noroeste 22 Oeste 0 -- -- 74
2020-05-17 06:00:00 13.5 9 Noroeste 26 Oeste 0 -- -- 73
2020-05-17 05:00:00 13.8 8 Oeste 20 Oeste 0 -- -- 73
2020-05-17 04:00:00 14.5 9 Noroeste 22 Oeste 0 -- -- 72
2020-05-17 03:00:00 15.1 11 Oeste 25 Oeste 0 -- -- 70
2020-05-17 02:00:00 15 7 Noroeste 13 Noroeste 0 -- -- 79
2020-05-17 01:00:00 15.3 9 Oeste 17 Oeste 0 -- -- 79
2020-05-17 00:00:00 15 9 Noroeste 18 Noroeste 0 -- -- 87
2020-05-16 23:00:00 15.4 6 Oeste 19 Sudoeste 0 -- -- 83
2020-05-16 22:00:00 16.7 9 Oeste 21 Oeste 0 -- -- 77
2020-05-16 21:00:00 18.3 5 Norte 19 Oeste 0 -- -- 75
2020-05-16 20:00:00 19.4 7 Oeste 17 Oeste 0 -- -- 65
2020-05-16 19:00:00 20.3 9 Noroeste 27 Oeste 0 -- -- 61
2020-05-16 18:00:00 20.4 14 Oeste 27 Oeste 0 -- -- 60
2020-05-16 17:00:00 19.9 16 Noroeste 31 Noroeste 0 -- -- 62
2020-05-16 16:00:00 20.3 13 Oeste 30 Noroeste 0 -- -- 62
2020-05-16 15:00:00 19.4 13 Oeste 33 Noroeste 0 -- -- 65
2020-05-16 14:00:00 17.7 13 Noroeste 24 Noroeste 0 -- -- 72
2020-05-16 13:00:00 16.7 15 Noroeste 28 Oeste 0 -- -- 74
2020-05-16 12:00:00 15.9 15 Noroeste 26 Noroeste 0 -- -- 74
2020-05-16 11:00:00 15.1 12 Noroeste 24 Noroeste 0 -- -- 77
2020-05-16 10:00:00 14 10 Noroeste 22 Oeste 0 -- -- 81
2020-05-16 09:00:00 13 10 Noroeste 22 Oeste 0 -- -- 83
2020-05-16 08:00:00 12.8 11 Noroeste 24 Oeste 0 -- -- 84
2020-05-16 07:00:00 12.8 12 Noroeste 25 Noroeste 0 -- -- 85
2020-05-16 06:00:00 13 6 Noroeste 11 Oeste 0 -- -- 89
2020-05-16 05:00:00 13.3 4 Noroeste 16 Oeste 0 -- -- 90
2020-05-16 04:00:00 13.6 8 Oeste 19 Oeste 0 -- -- 91
2020-05-16 03:00:00 13.9 12 Oeste 26 Sudoeste 0 -- -- 90
2020-05-16 02:00:00 14.2 6 Oeste 22 Sudoeste 0.2 -- -- 91
2020-05-16 01:00:00 14.7 10 Oeste 20 Sudoeste 0.8 -- -- 93
2020-05-16 00:00:00 16.2 3 Sudoeste 10 Sudoeste 1.6 -- -- 87
2020-05-15 23:00:00 15.9 5 Sudoeste 14 Sudeste 0 -- -- 86
2020-05-15 22:00:00 17 10 Sudeste 15 Sudeste 0 -- -- 80
2020-05-15 21:00:00 17.9 6 Sudeste 12 Sudeste 0 -- -- 79
2020-05-15 20:00:00 19 4 Sudoeste 8 Noroeste 0 -- -- 77
2020-05-15 19:00:00 20.1 2 Norte 9 Nordeste 0 -- -- 67
2020-05-15 18:00:00 20.1 5 Norte 13 Nordeste 0 -- -- 66
2020-05-15 17:00:00 20.9 4 Norte 17 Norte 0 -- -- 65
2020-05-15 16:00:00 20.6 8 Nordeste 21 Norte 0 -- -- 65
2020-05-15 15:00:00 20.6 10 Norte 23 Norte 0 -- -- 67
2020-05-15 14:00:00 19.3 13 Norte 28 Norte 0 -- -- 68
2020-05-15 13:00:00 18.1 13 Norte 29 Noroeste 0 -- -- 72
2020-05-15 12:00:00 17.9 13 Noroeste 27 Noroeste 0 -- -- 71
2020-05-15 11:00:00 16.4 15 Oeste 27 Noroeste 0 -- -- 75
2020-05-15 10:00:00 15.4 12 Noroeste 23 Oeste 0 -- -- 79
2020-05-15 09:00:00 14.6 7 Noroeste 18 Oeste 0 -- -- 85
2020-05-15 08:00:00 13.5 9 Noroeste 19 Noroeste 0 -- -- 87
2020-05-15 07:00:00 13.3 8 Oeste 21 Oeste 0 -- -- 88
2020-05-15 06:00:00 13.2 7 Oeste 17 Oeste 0 -- -- 91
2020-05-15 05:00:00 13.2 7 Noroeste 17 Oeste 0.2 -- -- 91
2020-05-15 04:00:00 13.2 6 Oeste 15 Oeste 0 -- -- 93
2020-05-15 03:00:00 13.2 10 Oeste 21 Oeste 0.2 -- -- 93
2020-05-15 02:00:00 13.2 4 Noroeste 8 Noroeste 0.2 -- -- 97
2020-05-15 01:00:00 13.3 3 Noroeste 6 Oeste 0 -- -- 96
2020-05-15 00:00:00 13.5 3 Oeste 12 Oeste 0.6 -- -- 95
2020-05-14 23:00:00 13.8 4 Oeste 12 Oeste 0 -- -- 93
2020-05-14 22:00:00 13.9 6 Oeste 15 Oeste 0.6 -- -- 94
2020-05-14 21:00:00 14.5 5 Sudoeste 12 Sudoeste 0.2 -- -- 92
2020-05-14 20:00:00 15 4 Noroeste 9 Noroeste 0 -- -- 92
2020-05-14 19:00:00 15.5 4 Norte 12 Norte 0 -- -- 88
2020-05-14 18:00:00 16.3 6 Oeste 10 Oeste 0 -- -- 85
2020-05-14 17:00:00 15.8 6 Oeste 14 Oeste 0 -- -- 90
2020-05-14 16:00:00 15.6 5 Este 12 Este 0.4 -- -- 91
2020-05-14 15:00:00 14.9 3 Este 6 Este 1.2 -- -- 94
2020-05-14 14:00:00 14.3 3 Este 6 Este 2.2 -- -- 97
2020-05-14 13:00:00 14.4 0 Calma 11 Este 4.8 -- -- 98
2020-05-14 12:00:00 14.3 3 Oeste 11 Oeste 8.4 -- -- 98
2020-05-14 11:00:00 14.2 6 Oeste 23 Oeste 19.6 -- -- 98
2020-05-14 10:00:00 13.9 5 Oeste 20 Sudoeste 8.2 -- -- 98
2020-05-14 09:00:00 12.6 12 Oeste 21 Oeste 8.2 -- -- 98
2020-05-14 08:00:00 12.2 2 Sudoeste 5 Sudoeste 0 -- -- 98
2020-05-14 07:00:00 11.4 2 Noroeste 9 Nordeste 0 -- -- 97
2020-05-14 06:00:00 11 0 Calma 8 Oeste 0 -- -- 96
2020-05-14 05:00:00 11.3 5 Sur 6 Sur 0 -- -- 96
2020-05-14 04:00:00 11.9 7 Sur 9 Sur 0 -- -- 96
2020-05-14 03:00:00 12.2 5 Oeste 7 Oeste 0 -- -- 95
2020-05-14 02:00:00 12.5 0 Calma 7 Oeste 0 -- -- 93
2020-05-14 01:00:00 12.8 0 Calma 8 Sudeste 0 -- -- 92
2020-05-14 00:00:00 13.2 4 Sudoeste 8 Sudeste 0 -- -- 90
2020-05-13 23:00:00 14.5 4 Sudoeste 12 Sur 0 -- -- 84
2020-05-13 22:00:00 16.8 4 Sudeste 13 Este 0 -- -- 75
2020-05-13 21:00:00 19.4 3 Noroeste 8 Este 0 -- -- 71
2020-05-13 20:00:00 21.9 7 Este 18 Oeste 0 -- -- 58
2020-05-13 19:00:00 21.8 9 Noroeste 18 Oeste 0 -- -- 51
2020-05-13 18:00:00 23.6 6 Sudoeste 18 Oeste 0 -- -- 44
2020-05-13 17:00:00 22.6 13 Oeste 23 Oeste 0 -- -- 47
2020-05-13 16:00:00 23 11 Noroeste 27 Oeste 0 -- -- 50
2020-05-13 15:00:00 22.1 10 Oeste 24 Oeste 0 -- -- 52
2020-05-13 14:00:00 21.2 10 Oeste 24 Sudoeste 0 -- -- 54
2020-05-13 13:00:00 21 13 Noroeste 30 Oeste 0 -- -- 52
2020-05-13 12:00:00 20.1 14 Noroeste 27 Norte 0 -- -- 56
2020-05-13 11:00:00 19.4 12 Noroeste 22 Oeste 0 -- -- 62
2020-05-13 10:00:00 16.8 9 Noroeste 13 Noroeste 0 -- -- 83
2020-05-13 09:00:00 14.9 7 Norte 12 Norte 0 -- -- 96
2020-05-13 08:00:00 14.5 4 Noroeste 6 Noroeste 0 -- -- 96
2020-05-13 07:00:00 14.9 4 Oeste 11 Oeste 3 -- -- 97
2020-05-13 06:00:00 14.6 4 Oeste 5 Oeste 0 -- -- 96
2020-05-13 05:00:00 15.2 3 Sudoeste 6 Sudoeste 0.8 -- -- 96
2020-05-13 04:00:00 15.3 0 Calma 5 Norte 0 -- -- 95
2020-05-13 03:00:00 15.5 3 Sudeste 15 Sudeste 0 -- -- 90
2020-05-13 02:00:00 15.6 9 Sudeste 15 Sur 0 -- -- 91
2020-05-13 01:00:00 15.6 9 Sur 13 Sudeste 0.2 -- -- 93
2020-05-13 00:00:00 15.9 7 Sudeste 19 Sur 0.4 -- -- 93
2020-05-12 23:00:00 16.1 10 Sudeste 18 Sudeste 0.2 -- -- 92
2020-05-12 22:00:00 16.5 12 Sudeste 25 Sudeste 0 -- -- 87
2020-05-12 21:00:00 16.5 14 Sudeste 25 Sudeste 0 -- -- 86
2020-05-12 20:00:00 17.4 12 Sur 21 Sur 0 -- -- 80
2020-05-12 19:00:00 17.9 14 Sudeste 26 Sudeste 0 -- -- 79
2020-05-12 18:00:00 18.4 16 Sudeste 30 Sudeste 0 -- -- 79
2020-05-12 17:00:00 19.4 16 Sudeste 35 Sudeste 0 -- -- 76
2020-05-12 16:00:00 20.9 13 Sudeste 27 Este 0 -- -- 73
2020-05-12 15:00:00 20.3 12 Sudeste 23 Sudeste 0 -- -- 73
2020-05-12 14:00:00 21.3 3 Sudoeste 13 Norte 0 -- -- 59
2020-05-12 13:00:00 18.8 6 Norte 18 Noroeste 0 -- -- 68
2020-05-12 12:00:00 17.2 8 Noroeste 13 Noroeste 0 -- -- 74
2020-05-12 11:00:00 17.6 6 Norte 13 Noroeste 0 -- -- 72
2020-05-12 10:00:00 16.4 8 Noroeste 13 Noroeste 0 -- -- 75
2020-05-12 09:00:00 15.3 4 Oeste 11 Norte 0 -- -- 82
2020-05-12 08:00:00 14.6 4 Noroeste 19 Sudoeste 0 -- -- 81
2020-05-12 07:00:00 14.5 10 Oeste 22 Sudoeste 0 -- -- 77
2020-05-12 06:00:00 13.7 5 Norte 12 Norte 0 -- -- 82
2020-05-12 05:00:00 13.7 5 Noroeste 15 Oeste 0 -- -- 82
2020-05-12 04:00:00 14.6 6 Noroeste 10 Norte 0 -- -- 79
2020-05-12 03:00:00 14.9 4 Norte 9 Norte 0 -- -- 78
2020-05-12 02:00:00 16.5 5 Norte 20 Oeste 0 -- -- 70
2020-05-12 01:00:00 18.1 9 Oeste 24 Oeste 0 -- -- 62
2020-05-12 00:00:00 18.7 11 Oeste 29 Sudoeste 0 -- -- 59
2020-05-11 23:00:00 18.8 14 Sudoeste 33 Sudoeste 0 -- -- 60
2020-05-11 22:00:00 19.7 14 Sudoeste 30 Sudoeste 0 -- -- 60
2020-05-11 21:00:00 21.2 10 Noroeste 22 Noroeste 0 -- -- 52
2020-05-11 20:00:00 23.6 5 Noroeste 15 Oeste 0 -- -- 47
2020-05-11 19:00:00 24.8 7 Noroeste 33 Oeste 0 -- -- 41
2020-05-11 18:00:00 25.5 8 Oeste 26 Noroeste 0 -- -- 41
2020-05-11 17:00:00 25.5 14 Oeste 33 Oeste 0 -- -- 39
2020-05-11 16:00:00 24.7 14 Oeste 31 Oeste 0 -- -- 41
2020-05-11 15:00:00 23.4 20 Oeste 39 Oeste 0 -- -- 42
2020-05-11 14:00:00 23.1 12 Oeste 32 Oeste 0 -- -- 49
2020-05-11 13:00:00 21.8 15 Oeste 35 Noroeste 0 -- -- 51
2020-05-11 12:00:00 21.7 16 Oeste 45 Oeste 0 -- -- 56
2020-05-11 11:00:00 19.9 15 Oeste 36 Sudoeste 0 -- -- 59
2020-05-11 10:00:00 18.2 9 Oeste 24 Oeste 0 -- -- 62
2020-05-11 09:00:00 15.9 9 Oeste 22 Oeste 0 -- -- 71
2020-05-11 08:00:00 15.5 7 Oeste 20 Oeste 0 -- -- 73
2020-05-11 07:00:00 14.6 9 Oeste 27 Oeste 0 -- -- 76
2020-05-11 06:00:00 15.1 15 Oeste 39 Noroeste 0 -- -- 74
2020-05-11 05:00:00 14.9 14 Oeste 31 Oeste 0 -- -- 76
2020-05-11 04:00:00 15.1 14 Oeste 31 Oeste 0 -- -- 76
2020-05-11 03:00:00 14.8 10 Oeste 25 Oeste 0 -- -- 78
2020-05-11 02:00:00 15.1 12 Oeste 26 Oeste 0 -- -- 78
2020-05-11 01:00:00 14.9 11 Oeste 23 Sudoeste 0 -- -- 80
2020-05-11 00:00:00 14.3 9 Oeste 24 Oeste 0 -- -- 84
2020-05-10 23:00:00 13.8 6 Noroeste 12 Noroeste 0.2 -- -- 92
2020-05-10 22:00:00 14 6 Noroeste 13 Noroeste 0 -- -- 92
2020-05-10 21:00:00 14.2 6 Noroeste 14 Norte 0 -- -- 89
2020-05-10 20:00:00 14.7 8 Oeste 24 Sudoeste 0 -- -- 89
2020-05-10 19:00:00 13.9 8 Sudoeste 26 Oeste 0.6 -- -- 93
2020-05-10 18:00:00 14.5 7 Oeste 13 Oeste 0.8 -- -- 94
2020-05-10 17:00:00 14.4 8 Sudoeste 27 Sudoeste 3.8 -- -- 92
2020-05-10 16:00:00 16.1 13 Sudoeste 34 Oeste 1.2 -- -- 84
2020-05-10 15:00:00 17.8 15 Noroeste 24 Noroeste 0 -- -- 75
2020-05-10 14:00:00 15.8 8 Norte 16 Norte 0.8 -- -- 94
2020-05-10 13:00:00 13.8 8 Norte 17 Nordeste 2.2 -- -- 97
2020-05-10 12:00:00 13.8 6 Noroeste 22 Oeste 2.6 -- -- 96
2020-05-10 11:00:00 13.4 16 Oeste 53 Oeste 12.6 -- -- 94
2020-05-10 10:00:00 17.2 21 Sur 41 Sudoeste 0.2 -- -- 79
2020-05-10 09:00:00 17.9 16 Este 27 Este 0 -- -- 90
2020-05-10 08:00:00 17.4 12 Este 23 Este 0 -- -- 92
2020-05-10 07:00:00 17.2 11 Sudeste 19 Este 0.2 -- -- 94
2020-05-10 06:00:00 17.3 7 Sudeste 14 Sudeste 0.2 -- -- 94
2020-05-10 05:00:00 17.8 5 Sudeste 15 Sudeste 0 -- -- 89
2020-05-10 04:00:00 17.8 10 Sudeste 20 Sudeste 0 -- -- 89
2020-05-10 03:00:00 17.8 9 Sudeste 21 Este 0 -- -- 88
2020-05-10 02:00:00 18 10 Sudeste 19 Este 0 -- -- 85
2020-05-10 01:00:00 18.2 13 Sudeste 22 Sudeste 0 -- -- 86
2020-05-10 00:00:00 18.3 11 Sudeste 26 Sudeste 0 -- -- 87
2020-05-09 23:00:00 18.3 12 Sudeste 29 Sudeste 0 -- -- 86
2020-05-09 22:00:00 18.3 12 Sudeste 26 Este 0 -- -- 86
2020-05-09 21:00:00 18.5 13 Sudeste 27 Sudeste 0 -- -- 85
2020-05-09 20:00:00 19.2 14 Sudeste 23 Sudeste 0 -- -- 81
2020-05-09 19:00:00 19.9 13 Sudeste 24 Sudeste 0 -- -- 78
2020-05-09 18:00:00 20.4 12 Sudeste 26 Este 0 -- -- 77
2020-05-09 17:00:00 21.4 16 Sudeste 31 Sudeste 0 -- -- 71
2020-05-09 16:00:00 21.2 15 Sudeste 30 Este 0 -- -- 70
2020-05-09 15:00:00 21.6 13 Sudeste 27 Este 0 -- -- 72
2020-05-09 14:00:00 20.8 16 Este 28 Sudeste 0 -- -- 70
2020-05-09 13:00:00 22 14 Este 29 Sudeste 0 -- -- 65
2020-05-09 12:00:00 21.7 14 Sudeste 28 Sudeste 0 -- -- 66
2020-05-09 11:00:00 20.7 13 Sudeste 26 Sudeste 0 -- -- 71
2020-05-09 10:00:00 17.9 3 Sur 9 Noroeste 0 -- -- 84
2020-05-09 09:00:00 16.8 3 Norte 8 Norte 0 -- -- 89
2020-05-09 08:00:00 15.9 4 Sudoeste 8 Sudeste 0 -- -- 91
2020-05-09 07:00:00 16.4 3 Sur 20 Sudeste 0 -- -- 86
2020-05-09 06:00:00 17.1 13 Sudeste 26 Sudeste 0 -- -- 84
2020-05-09 05:00:00 17.2 16 Sudeste 28 Sudeste 0 -- -- 86
2020-05-09 04:00:00 16.9 11 Sudeste 21 Sudeste 0 -- -- 88
2020-05-09 03:00:00 17.1 11 Sudeste 23 Sur 0 -- -- 86
2020-05-09 02:00:00 17 10 Sudeste 21 Sudeste 0 -- -- 88
2020-05-09 01:00:00 17.1 11 Sudeste 21 Sudeste 0 -- -- 88
2020-05-09 00:00:00 17.2 10 Sudeste 21 Sudeste 0 -- -- 87
2020-05-08 23:00:00 17.2 13 Sur 22 Sudeste 0 -- -- 87
2020-05-08 22:00:00 17.4 12 Sudeste 22 Sudeste 0 -- -- 88
2020-05-08 21:00:00 18.1 14 Sudeste 26 Sudeste 0 -- -- 84
2020-05-08 20:00:00 19.3 13 Sudeste 36 Sudeste 0 -- -- 78
2020-05-08 19:00:00 20.4 22 Sudeste 38 Sudeste 0 -- -- 75
2020-05-08 18:00:00 21.7 20 Sudeste 31 Sudeste 0 -- -- 70
2020-05-08 17:00:00 20.9 14 Sudeste 39 Este 0 -- -- 74
2020-05-08 16:00:00 22.1 18 Sudeste 33 Sudeste 0 -- -- 68
2020-05-08 15:00:00 23.4 17 Sudeste 31 Sudeste 0 -- -- 64
2020-05-08 14:00:00 22.7 17 Sudeste 30 Sudeste 0 -- -- 62
2020-05-08 13:00:00 22.3 14 Sudeste 27 Sudeste 0 -- -- 64
2020-05-08 12:00:00 21.8 16 Sudeste 30 Sudeste 0 -- -- 67
2020-05-08 11:00:00 20.3 14 Sudeste 26 Sudeste 0 -- -- 72
2020-05-08 10:00:00 18.8 10 Sudeste 22 Sudeste 0 -- -- 76
2020-05-08 09:00:00 16.3 5 Norte 15 Sudeste 0 -- -- 93
2020-05-08 08:00:00 13.6 0 Calma 10 Sudeste 0 -- -- 97
2020-05-08 07:00:00 12.1 3 Este 6 Este 0 -- -- 95
2020-05-08 06:00:00 12.8 3 Sur 5 Sur 0 -- -- 93
2020-05-08 05:00:00 14 0 Calma 6 Nordeste 0 -- -- 93
2020-05-08 04:00:00 16 5 Este 17 Sudeste 0 -- -- 88
2020-05-08 03:00:00 16.6 9 Sudeste 18 Sudeste 0 -- -- 87
2020-05-08 02:00:00 17.2 10 Sur 23 Sudeste 0 -- -- 85
2020-05-08 01:00:00 17.6 15 Sudeste 24 Sudeste 0 -- -- 84
2020-05-08 00:00:00 17.9 13 Sudeste 27 Sudeste 0 -- -- 83
2020-05-07 23:00:00 18.3 14 Sudeste 25 Sudeste 0 -- -- 82
2020-05-07 22:00:00 18.7 14 Sudeste 27 Sudeste 0 -- -- 80
2020-05-07 21:00:00 19.1 13 Sur 25 Sudeste 0 -- -- 71
2020-05-07 20:00:00 20.4 17 Sudeste 28 Sudeste 0 -- -- 65
2020-05-07 19:00:00 21.2 14 Sudeste 30 Sudeste 0 -- -- 61
2020-05-07 18:00:00 22.4 14 Sudeste 27 Sudeste 0 -- -- 53
2020-05-07 17:00:00 24.2 17 Sudeste 27 Sudeste 0 -- -- 51
2020-05-07 16:00:00 25.1 14 Sudeste 30 Sudeste 0 -- -- 52
2020-05-07 15:00:00 24.7 14 Sudeste 27 Este 0 -- -- 53
2020-05-07 14:00:00 23.4 15 Sudeste 30 Este 0 -- -- 59
2020-05-07 13:00:00 23.9 18 Sudeste 32 Este 0 -- -- 55
2020-05-07 12:00:00 23.8 16 Sudeste 28 Sudeste 0 -- -- 53
2020-05-07 11:00:00 23.3 15 Sudeste 26 Sudeste 0 -- -- 54
2020-05-07 10:00:00 18.9 4 Norte 9 Norte 0 -- -- 80
2020-05-07 09:00:00 14.9 3 Nordeste 6 Oeste 0 -- -- 93
2020-05-07 08:00:00 13.9 2 Noroeste 5 Noroeste 0 -- -- 96
2020-05-07 07:00:00 12 0 Calma 8 Sudeste 0 -- -- 95
2020-05-07 06:00:00 12.6 5 Oeste 7 Oeste 0 -- -- 95
2020-05-07 05:00:00 12.9 0 Calma 5 Sur 0 -- -- 91
2020-05-07 04:00:00 13.9 0 Calma 10 Noroeste 0 -- -- 90
2020-05-07 03:00:00 15.2 5 Oeste 18 Sur 0 -- -- 86
2020-05-07 02:00:00 15.5 3 Sur 12 Sudeste 0 -- -- 86
2020-05-07 01:00:00 17.9 7 Sudeste 16 Sudeste 0 -- -- 74
2020-05-07 00:00:00 18.1 10 Sudeste 16 Sudeste 0 -- -- 73
2020-05-06 23:00:00 18.5 9 Sudeste 13 Sur 0 -- -- 73
2020-05-06 22:00:00 19.5 10 Sur 16 Sudeste 0 -- -- 70
2020-05-06 21:00:00 21.2 9 Sur 19 Sudeste 0 -- -- 64
2020-05-06 20:00:00 23.5 13 Sudeste 29 Este 0 -- -- 53
2020-05-06 19:00:00 24.5 16 Sudeste 30 Sudeste 0 -- -- 52
2020-05-06 18:00:00 24.6 16 Sudeste 32 Sudeste 0 -- -- 51
2020-05-06 17:00:00 26 17 Sudeste 32 Sudeste 0 -- -- 48
2020-05-06 16:00:00 26.5 17 Sudeste 32 Sudeste 0 -- -- 50
2020-05-06 15:00:00 26.9 16 Sudeste 32 Sur 0 -- -- 51
2020-05-06 14:00:00 27.8 5 Nordeste 14 Sudeste 0 -- -- 40
2020-05-06 13:00:00 26.1 6 Norte 14 Norte 0 -- -- 44
2020-05-06 12:00:00 24.3 5 Norte 13 Norte 0 -- -- 51
2020-05-06 11:00:00 22.5 4 Norte 12 Norte 0 -- -- 62
2020-05-06 10:00:00 18.9 4 Oeste 10 Noroeste 0 -- -- 80
2020-05-06 09:00:00 16.1 5 Noroeste 12 Oeste 0 -- -- 99
2020-05-06 08:00:00 14.9 6 Oeste 10 Oeste 0 -- -- 98
2020-05-06 07:00:00 14.5 2 Oeste 5 Oeste 0 -- -- 98
2020-05-06 06:00:00 14.6 2 Norte 5 Noroeste 0 -- -- 98
2020-05-06 05:00:00 14.7 0 Calma 6 Noroeste 0 -- -- 97
2020-05-06 04:00:00 14 0 Calma 4 Sur 0 -- -- 96
2020-05-06 03:00:00 14.6 5 Sur 8 Sudeste 0 -- -- 95
2020-05-06 02:00:00 15.3 0 Calma 5 Noroeste 0 -- -- 93
2020-05-06 01:00:00 16.8 4 Sur 16 Sur 0 -- -- 91
2020-05-06 00:00:00 18.1 8 Sudeste 20 Sudeste 0 -- -- 92
2020-05-05 23:00:00 19 12 Sudeste 22 Sudeste 0 -- -- 89
2020-05-05 22:00:00 19.9 12 Sudeste 21 Sudeste 0 -- -- 83
2020-05-05 21:00:00 21.2 14 Sudeste 26 Sudeste 0 -- -- 78
2020-05-05 20:00:00 23.6 14 Sudeste 28 Sudeste 0 -- -- 71
2020-05-05 19:00:00 25.7 7 Sur 12 Sudeste 0 -- -- 59
2020-05-05 18:00:00 26.5 5 Este 8 Norte 0 -- -- 54
2020-05-05 17:00:00 26.2 0 Calma 10 Norte 0 -- -- 55
2020-05-05 16:00:00 25.1 5 Norte 12 Noroeste 0 -- -- 61
2020-05-05 15:00:00 25.5 5 Norte 10 Norte 0 -- -- 56
2020-05-05 14:00:00 24.7 5 Norte 13 Norte 0 -- -- 65
2020-05-05 13:00:00 24.6 8 Norte 15 Noroeste 0 -- -- 65
2020-05-05 12:00:00 22.5 6 Norte 10 Noroeste 0 -- -- 74
2020-05-05 11:00:00 20.9 5 Noroeste 12 Norte 0 -- -- 78
2020-05-05 10:00:00 19.7 5 Norte 9 Norte 0 -- -- 84
2020-05-05 09:00:00 17.8 4 Norte 7 Nordeste 0 -- -- 91
2020-05-05 08:00:00 17.3 4 Sudoeste 12 Oeste 0 -- -- 93
2020-05-05 07:00:00 17.3 4 Sudeste 12 Sur 0 -- -- 93
2020-05-05 06:00:00 17.2 9 Sur 15 Sur 0 -- -- 93
2020-05-05 05:00:00 17.5 6 Sur 13 Sur 0 -- -- 92
2020-05-05 04:00:00 17.6 8 Sur 19 Sudeste 0 -- -- 92
2020-05-05 03:00:00 17.8 8 Sudeste 21 Sudeste 0 -- -- 92
2020-05-05 02:00:00 17.9 9 Sudeste 21 Sudeste 0 -- -- 91
2020-05-05 01:00:00 18 5 Sudeste 25 Sudeste 0 -- -- 91
2020-05-05 00:00:00 18.4 11 Sudeste 37 Sudeste 0 -- -- 88